createdAt,value
2024-05-09T15:34:07.128Z,20.86
2024-05-09T15:36:35.136Z,20.86
2024-05-09T15:39:03.179Z,20.82
2024-05-09T15:41:31.234Z,20.75
2024-05-09T15:43:59.183Z,20.73
2024-05-09T15:46:27.245Z,20.67
2024-05-09T15:48:55.402Z,20.62
2024-05-09T15:51:23.258Z,20.58
2024-05-09T15:53:51.222Z,20.59
2024-05-09T15:56:19.305Z,20.57
2024-05-09T15:58:47.230Z,20.53
2024-05-09T16:01:15.122Z,20.51
2024-05-09T16:03:43.457Z,20.46
2024-05-09T16:06:11.718Z,20.39
2024-05-09T16:08:39.890Z,20.34
2024-05-09T16:11:08.059Z,20.27
2024-05-09T16:13:36.084Z,20.17
2024-05-09T16:16:04.373Z,20.10
2024-05-09T16:18:32.448Z,20.01
2024-05-09T16:21:01.481Z,19.95
2024-05-09T16:23:29.564Z,19.87
2024-05-09T16:25:58.019Z,19.75
2024-05-09T16:28:27.093Z,19.64
2024-05-09T16:30:55.313Z,19.59
2024-05-09T16:33:25.741Z,19.50
2024-05-09T16:35:53.788Z,19.43
2024-05-09T16:38:21.889Z,19.35
2024-05-09T16:40:49.916Z,19.27
2024-05-09T16:43:18.078Z,19.22
2024-05-09T16:45:46.240Z,19.16
2024-05-09T16:48:14.839Z,19.14
2024-05-09T16:50:42.967Z,19.16
2024-05-09T16:53:11.078Z,19.14
2024-05-09T16:55:39.130Z,19.13
2024-05-09T16:58:08.338Z,19.11
2024-05-09T17:00:41.665Z,19.05
2024-05-09T17:03:15.142Z,18.98
2024-05-09T17:05:46.581Z,18.89
2024-05-09T17:08:17.756Z,18.80
2024-05-09T17:10:48.320Z,18.74
2024-05-09T17:13:17.035Z,18.68
2024-05-09T17:15:45.404Z,18.64
2024-05-09T17:18:13.888Z,18.53
2024-05-09T17:20:42.243Z,18.42
2024-05-09T17:23:13.795Z,18.30
2024-05-09T17:25:43.174Z,18.18
2024-05-09T17:28:12.219Z,18.09
2024-05-09T17:30:42.382Z,18.01
2024-05-09T17:33:12.843Z,17.90
2024-05-09T17:35:41.331Z,17.81
2024-05-09T17:38:09.421Z,17.72
2024-05-09T17:40:38.629Z,17.66
2024-05-09T17:43:09.555Z,17.59
2024-05-09T17:45:40.630Z,17.53
2024-05-09T17:48:11.260Z,17.49
2024-05-09T17:50:40.469Z,17.43
2024-05-09T17:53:10.222Z,17.35
2024-05-09T17:55:39.467Z,17.32
2024-05-09T17:58:07.754Z,17.27
2024-05-09T18:00:39.731Z,17.19
2024-05-09T18:03:11.830Z,17.14
2024-05-09T18:05:42.893Z,17.09
2024-05-09T18:08:12.352Z,17.06
2024-05-09T18:10:41.297Z,17.03
2024-05-09T18:13:11.154Z,17.02
2024-05-09T18:15:39.918Z,17.01
2024-05-09T18:18:08.763Z,17.00
2024-05-09T18:20:42.802Z,16.98
2024-05-09T18:23:16.152Z,16.96
2024-05-09T18:25:46.081Z,16.93
2024-05-09T18:28:14.893Z,16.92
2024-05-09T18:30:42.953Z,16.90
2024-05-09T18:33:12.067Z,16.89
2024-05-09T18:35:44.567Z,16.87
2024-05-09T18:38:13.089Z,16.86
2024-05-09T18:40:44.754Z,16.84
2024-05-09T18:43:15.027Z,16.82
2024-05-09T18:45:42.892Z,16.79
2024-05-09T18:48:11.470Z,16.76
2024-05-09T18:50:41.214Z,16.73
2024-05-09T18:53:12.191Z,16.71
2024-05-09T18:55:42.154Z,16.69
2024-05-09T18:58:10.470Z,16.67
2024-05-09T19:00:41.313Z,16.65
2024-05-09T19:03:14.024Z,16.62
2024-05-09T19:05:44.692Z,16.60
2024-05-09T19:08:14.810Z,16.58
2024-05-09T19:10:45.635Z,16.56
2024-05-09T19:13:14.783Z,16.53
2024-05-09T19:15:44.060Z,16.50
2024-05-09T19:18:14.118Z,16.48
2024-05-09T19:20:43.649Z,16.45
2024-05-09T19:23:12.268Z,16.43
2024-05-09T19:25:40.473Z,16.41
2024-05-09T19:28:08.561Z,16.39
2024-05-09T19:30:40.698Z,16.36
2024-05-09T19:33:12.837Z,16.33
2024-05-09T19:35:42.794Z,16.30
2024-05-09T19:38:11.752Z,16.27
2024-05-09T19:40:39.603Z,16.24
2024-05-09T19:43:07.646Z,16.19
2024-05-09T19:45:36.486Z,16.15
2024-05-09T19:48:06.450Z,16.11
2024-05-09T19:50:41.761Z,16.07
2024-05-09T19:53:14.238Z,16.02
2024-05-09T19:55:43.083Z,15.99
2024-05-09T19:58:12.019Z,15.96
2024-05-09T20:00:42.807Z,15.93
2024-05-09T20:03:14.088Z,15.90
2024-05-09T20:05:43.942Z,15.86
2024-05-09T20:08:12.416Z,15.82
2024-05-09T20:10:40.307Z,15.77
2024-05-09T20:13:08.899Z,15.70
2024-05-09T20:15:38.528Z,15.67
2024-05-09T20:18:07.509Z,15.62
2024-05-09T20:20:40.057Z,15.56
2024-05-09T20:23:12.167Z,15.51
2024-05-09T20:25:40.684Z,15.45
2024-05-09T20:28:08.764Z,15.40
2024-05-09T20:30:37.075Z,15.35
2024-05-09T20:33:07.644Z,15.30
2024-05-09T20:35:37.373Z,15.26
2024-05-09T20:38:05.467Z,15.22
2024-05-09T20:40:37.708Z,15.18
2024-05-09T20:43:09.467Z,15.13
2024-05-09T20:45:39.212Z,15.09
2024-05-09T20:48:09.769Z,15.07
2024-05-09T20:50:41.232Z,15.05
2024-05-09T20:53:13.171Z,15.02
2024-05-09T20:55:43.386Z,14.98
2024-05-09T20:58:11.859Z,14.95
2024-05-09T21:00:43.686Z,14.91
2024-05-09T21:03:16.574Z,14.88
2024-05-09T21:05:47.330Z,14.86
2024-05-09T21:08:16.240Z,14.82
2024-05-09T21:10:44.266Z,14.77
2024-05-09T21:13:12.495Z,14.75
2024-05-09T21:15:40.757Z,14.72
2024-05-09T21:18:09.049Z,14.68
2024-05-09T21:20:37.359Z,14.64
2024-05-09T21:23:05.493Z,14.60
2024-05-09T21:25:33.433Z,14.55
2024-05-09T21:28:01.581Z,14.50
2024-05-09T21:30:38.613Z,14.44
2024-05-09T21:33:12.683Z,14.38
2024-05-09T21:35:43.284Z,14.33
2024-05-09T21:38:13.464Z,14.28
2024-05-09T21:40:42.835Z,14.25
2024-05-09T21:43:10.834Z,14.21
2024-05-09T21:45:38.718Z,14.16
2024-05-09T21:48:07.710Z,14.12
2024-05-09T21:50:40.290Z,14.08
2024-05-09T21:53:11.561Z,14.06
2024-05-09T21:55:40.877Z,14.02
2024-05-09T21:58:08.829Z,14.01
2024-05-09T22:00:39.454Z,13.99
2024-05-09T22:03:09.312Z,13.95
2024-05-09T22:05:41.315Z,13.91
2024-05-09T22:08:10.420Z,13.88
2024-05-09T22:10:38.608Z,13.86
2024-05-09T22:13:07.778Z,13.82
2024-05-09T22:15:37.786Z,13.78
2024-05-09T22:18:08.013Z,13.77
2024-05-09T22:20:39.001Z,13.77
2024-05-09T22:23:08.825Z,13.74
2024-05-09T22:25:39.146Z,13.72
2024-05-09T22:28:07.697Z,13.69
2024-05-09T22:30:39.059Z,13.67
2024-05-09T22:33:09.755Z,13.64
2024-05-09T22:35:40.075Z,13.60
2024-05-09T22:38:08.411Z,13.59
2024-05-09T22:40:45.509Z,13.58
2024-05-09T22:43:22.648Z,13.55
2024-05-09T22:45:54.404Z,13.54
2024-05-09T22:48:24.357Z,13.52
2024-05-09T22:50:53.436Z,13.49
2024-05-09T22:53:24.345Z,13.45
2024-05-09T22:55:52.345Z,13.44
2024-05-09T22:58:20.782Z,13.41
2024-05-09T23:00:49.074Z,13.37
2024-05-09T23:03:20.850Z,13.34
2024-05-09T23:05:49.539Z,13.29
2024-05-09T23:08:17.877Z,13.23
2024-05-09T23:10:45.838Z,13.21
2024-05-09T23:13:14.042Z,13.18
2024-05-09T23:15:42.035Z,13.14
2024-05-09T23:18:10.499Z,13.11
2024-05-09T23:20:40.031Z,13.05
2024-05-09T23:23:10.543Z,13.00
2024-05-09T23:25:43.473Z,12.96
2024-05-09T23:28:12.664Z,12.93
2024-05-09T23:30:41.756Z,12.92
2024-05-09T23:33:13.101Z,12.90
2024-05-09T23:35:44.323Z,12.87
2024-05-09T23:38:13.243Z,12.86
2024-05-09T23:40:42.640Z,12.84
2024-05-09T23:43:12.476Z,12.83
2024-05-09T23:45:42.431Z,12.80
2024-05-09T23:48:11.529Z,12.78
2024-05-09T23:50:40.675Z,12.76
2024-05-09T23:53:10.670Z,12.76
2024-05-09T23:55:39.638Z,12.75
2024-05-09T23:58:09.303Z,12.73
